Trinidad, Colorado
Current Conditions -  °F | °C
As of 12:20 PM on Monday 22 Dec 2014 (Local Time) from KTAD Reporting Station
Light Snow Light Snow  
Wind Chill: 21°   Ceiling: 1500
Heat Index: 30°   Visibility: 1.5mi
Dew Point: 29°   Wind: 12mph
Humidity: 96%   Direction: 170°S
Pressure: 29.71"   Gusts: NA
Location:  37.17°N, 104.51°W
Report Text: KTAD 221920Z AUTO 17010KT 1 1/2SM -SN BR BKN015 BKN028 OVC036 M01/M02 A2971 RMK AO2 P0001 T10111017
Loading
Personal Weather Stations






























Interactive Weather Map New forecast layout! Learn more

10-Day Weather Forecast

Advertisements
Track Severe Weather on mobile